sensor_id;sensor_type;location;lat;lon;timestamp;P1;durP1;ratioP1;P2;durP2;ratioP2
56599;SDS011;51832;48.152;11.530;2024-03-02T00:04:08;12.35;;;7.47;;
56599;SDS011;51832;48.152;11.530;2024-03-02T00:09:09;12.38;;;8.40;;
56599;SDS011;51832;48.152;11.530;2024-03-02T00:14:11;10.57;;;7.05;;
56599;SDS011;51832;48.152;11.530;2024-03-02T00:19:12;9.93;;;7.13;;
56599;SDS011;51832;48.152;11.530;2024-03-02T00:24:46;11.98;;;7.88;;
56599;SDS011;51832;48.152;11.530;2024-03-02T00:29:40;11.05;;;7.22;;
56599;SDS011;51832;48.152;11.530;2024-03-02T00:34:42;11.98;;;7.90;;
56599;SDS011;51832;48.152;11.530;2024-03-02T00:39:43;11.45;;;7.78;;
56599;SDS011;51832;48.152;11.530;2024-03-02T00:44:43;10.38;;;7.40;;
56599;SDS011;51832;48.152;11.530;2024-03-02T00:49:44;14.32;;;8.85;;
56599;SDS011;51832;48.152;11.530;2024-03-02T00:59:48;10.53;;;7.40;;
56599;SDS011;51832;48.152;11.530;2024-03-02T01:04:48;10.35;;;7.57;;
56599;SDS011;51832;48.152;11.530;2024-03-02T01:09:49;10.45;;;7.28;;
56599;SDS011;51832;48.152;11.530;2024-03-02T01:14:49;11.98;;;7.18;;
56599;SDS011;51832;48.152;11.530;2024-03-02T01:19:50;10.68;;;7.32;;
56599;SDS011;51832;48.152;11.530;2024-03-02T01:24:51;12.30;;;7.57;;
56599;SDS011;51832;48.152;11.530;2024-03-02T01:29:51;12.93;;;8.10;;
56599;SDS011;51832;48.152;11.530;2024-03-02T01:34:52;13.43;;;8.05;;
56599;SDS011;51832;48.152;11.530;2024-03-02T01:39:52;11.52;;;7.55;;
56599;SDS011;51832;48.152;11.530;2024-03-02T01:44:53;13.30;;;8.38;;
56599;SDS011;51832;48.152;11.530;2024-03-02T01:49:53;10.98;;;7.72;;
56599;SDS011;51832;48.152;11.530;2024-03-02T01:54:54;11.75;;;7.30;;
56599;SDS011;51832;48.152;11.530;2024-03-02T01:59:54;11.65;;;7.75;;
56599;SDS011;51832;48.152;11.530;2024-03-02T02:04:55;11.15;;;7.15;;
56599;SDS011;51832;48.152;11.530;2024-03-02T02:09:56;10.82;;;8.00;;
56599;SDS011;51832;48.152;11.530;2024-03-02T02:14:57;8.73;;;6.97;;
56599;SDS011;51832;48.152;11.530;2024-03-02T02:19:57;8.65;;;6.63;;
56599;SDS011;51832;48.152;11.530;2024-03-02T02:24:58;11.02;;;6.53;;
56599;SDS011;51832;48.152;11.530;2024-03-02T02:29:58;11.23;;;6.82;;
56599;SDS011;51832;48.152;11.530;2024-03-02T02:34:59;10.23;;;6.90;;
56599;SDS011;51832;48.152;11.530;2024-03-02T02:40:00;12.20;;;7.55;;
56599;SDS011;51832;48.152;11.530;2024-03-02T02:45:00;15.48;;;7.05;;
56599;SDS011;51832;48.152;11.530;2024-03-02T02:50:04;11.82;;;7.10;;
56599;SDS011;51832;48.152;11.530;2024-03-02T02:55:08;12.77;;;7.45;;
56599;SDS011;51832;48.152;11.530;2024-03-02T03:00:13;14.00;;;7.88;;
56599;SDS011;51832;48.152;11.530;2024-03-02T03:05:15;13.32;;;8.52;;
56599;SDS011;51832;48.152;11.530;2024-03-02T03:10:16;13.20;;;8.25;;
56599;SDS011;51832;48.152;11.530;2024-03-02T03:15:17;12.82;;;8.00;;
56599;SDS011;51832;48.152;11.530;2024-03-02T03:20:17;14.95;;;8.07;;
56599;SDS011;51832;48.152;11.530;2024-03-02T03:25:18;12.15;;;7.95;;
56599;SDS011;51832;48.152;11.530;2024-03-02T03:30:18;12.27;;;7.82;;
56599;SDS011;51832;48.152;11.530;2024-03-02T03:35:19;13.60;;;7.80;;
56599;SDS011;51832;48.152;11.530;2024-03-02T03:40:19;14.48;;;8.63;;
56599;SDS011;51832;48.152;11.530;2024-03-02T03:45:20;13.38;;;7.95;;
56599;SDS011;51832;48.152;11.530;2024-03-02T03:50:21;14.35;;;8.23;;
56599;SDS011;51832;48.152;11.530;2024-03-02T03:55:21;13.60;;;8.15;;
56599;SDS011;51832;48.152;11.530;2024-03-02T04:00:22;12.88;;;8.43;;
56599;SDS011;51832;48.152;11.530;2024-03-02T04:05:22;13.40;;;8.27;;
56599;SDS011;51832;48.152;11.530;2024-03-02T04:10:23;13.63;;;8.82;;
56599;SDS011;51832;48.152;11.530;2024-03-02T04:15:24;13.60;;;8.70;;
56599;SDS011;51832;48.152;11.530;2024-03-02T04:20:25;15.20;;;8.52;;
56599;SDS011;51832;48.152;11.530;2024-03-02T04:25:25;11.70;;;8.05;;
56599;SDS011;51832;48.152;11.530;2024-03-02T04:30:26;14.43;;;8.98;;
56599;SDS011;51832;48.152;11.530;2024-03-02T04:35:26;13.00;;;8.40;;
56599;SDS011;51832;48.152;11.530;2024-03-02T04:40:27;13.00;;;8.57;;
56599;SDS011;51832;48.152;11.530;2024-03-02T04:45:28;12.25;;;8.45;;
56599;SDS011;51832;48.152;11.530;2024-03-02T04:50:28;14.98;;;8.63;;
56599;SDS011;51832;48.152;11.530;2024-03-02T04:55:29;14.05;;;8.95;;
56599;SDS011;51832;48.152;11.530;2024-03-02T05:00:49;14.55;;;9.18;;
56599;SDS011;51832;48.152;11.530;2024-03-02T05:05:50;15.55;;;8.85;;
56599;SDS011;51832;48.152;11.530;2024-03-02T05:10:50;14.25;;;8.93;;
56599;SDS011;51832;48.152;11.530;2024-03-02T05:15:51;13.07;;;8.60;;
56599;SDS011;51832;48.152;11.530;2024-03-02T05:20:51;14.15;;;8.63;;
56599;SDS011;51832;48.152;11.530;2024-03-02T05:25:52;17.58;;;9.63;;
56599;SDS011;51832;48.152;11.530;2024-03-02T05:30:52;12.88;;;8.73;;
56599;SDS011;51832;48.152;11.530;2024-03-02T05:35:53;13.05;;;8.73;;
56599;SDS011;51832;48.152;11.530;2024-03-02T05:40:53;14.75;;;9.20;;
56599;SDS011;51832;48.152;11.530;2024-03-02T05:45:54;16.60;;;10.00;;
56599;SDS011;51832;48.152;11.530;2024-03-02T05:50:54;15.25;;;9.82;;
56599;SDS011;51832;48.152;11.530;2024-03-02T05:55:55;18.15;;;9.68;;
56599;SDS011;51832;48.152;11.530;2024-03-02T06:00:55;16.08;;;10.18;;
56599;SDS011;51832;48.152;11.530;2024-03-02T06:05:57;16.90;;;10.27;;
56599;SDS011;51832;48.152;11.530;2024-03-02T06:10:57;16.23;;;10.02;;
56599;SDS011;51832;48.152;11.530;2024-03-02T06:15:58;13.95;;;8.30;;
56599;SDS011;51832;48.152;11.530;2024-03-02T06:20:58;10.60;;;7.13;;
56599;SDS011;51832;48.152;11.530;2024-03-02T06:25:59;10.40;;;7.25;;
56599;SDS011;51832;48.152;11.530;2024-03-02T06:30:59;9.73;;;7.00;;
56599;SDS011;51832;48.152;11.530;2024-03-02T06:36:01;12.55;;;8.93;;
56599;SDS011;51832;48.152;11.530;2024-03-02T06:41:02;15.20;;;10.15;;
56599;SDS011;51832;48.152;11.530;2024-03-02T06:46:02;13.18;;;8.98;;
56599;SDS011;51832;48.152;11.530;2024-03-02T06:51:03;13.30;;;9.10;;
56599;SDS011;51832;48.152;11.530;2024-03-02T06:56:04;14.98;;;9.65;;
56599;SDS011;51832;48.152;11.530;2024-03-02T07:01:05;16.60;;;9.98;;
56599;SDS011;51832;48.152;11.530;2024-03-02T07:06:05;16.90;;;10.35;;
56599;SDS011;51832;48.152;11.530;2024-03-02T07:11:05;17.70;;;10.45;;
56599;SDS011;51832;48.152;11.530;2024-03-02T07:16:06;17.02;;;10.68;;
56599;SDS011;51832;48.152;11.530;2024-03-02T07:21:27;18.70;;;10.63;;
56599;SDS011;51832;48.152;11.530;2024-03-02T07:26:28;20.88;;;10.88;;
56599;SDS011;51832;48.152;11.530;2024-03-02T07:31:32;18.20;;;10.90;;
56599;SDS011;51832;48.152;11.530;2024-03-02T07:36:32;15.40;;;10.18;;
56599;SDS011;51832;48.152;11.530;2024-03-02T07:41:33;20.35;;;11.85;;
56599;SDS011;51832;48.152;11.530;2024-03-02T07:46:34;18.65;;;11.00;;
56599;SDS011;51832;48.152;11.530;2024-03-02T07:51:34;20.70;;;11.88;;
56599;SDS011;51832;48.152;11.530;2024-03-02T07:56:36;21.08;;;12.25;;
56599;SDS011;51832;48.152;11.530;2024-03-02T08:01:36;21.35;;;12.05;;
56599;SDS011;51832;48.152;11.530;2024-03-02T08:06:37;19.98;;;11.77;;
56599;SDS011;51832;48.152;11.530;2024-03-02T08:11:38;21.05;;;11.27;;
56599;SDS011;51832;48.152;11.530;2024-03-02T08:16:38;18.98;;;11.00;;
56599;SDS011;51832;48.152;11.530;2024-03-02T08:21:40;22.30;;;12.90;;
56599;SDS011;51832;48.152;11.530;2024-03-02T08:26:40;17.77;;;10.80;;
56599;SDS011;51832;48.152;11.530;2024-03-02T08:31:41;16.80;;;9.80;;
56599;SDS011;51832;48.152;11.530;2024-03-02T08:36:41;13.73;;;8.98;;
56599;SDS011;51832;48.152;11.530;2024-03-02T08:41:42;16.55;;;10.05;;
56599;SDS011;51832;48.152;11.530;2024-03-02T08:46:44;15.03;;;10.03;;
56599;SDS011;51832;48.152;11.530;2024-03-02T08:51:45;16.02;;;10.35;;
56599;SDS011;51832;48.152;11.530;2024-03-02T08:56:54;17.38;;;9.60;;
56599;SDS011;51832;48.152;11.530;2024-03-02T09:01:54;10.93;;;7.22;;
56599;SDS011;51832;48.152;11.530;2024-03-02T09:06:55;12.50;;;7.07;;
56599;SDS011;51832;48.152;11.530;2024-03-02T09:11:55;11.50;;;7.40;;
56599;SDS011;51832;48.152;11.530;2024-03-02T09:16:57;13.25;;;8.60;;
56599;SDS011;51832;48.152;11.530;2024-03-02T09:21:58;15.68;;;10.43;;
56599;SDS011;51832;48.152;11.530;2024-03-02T09:26:59;15.68;;;10.02;;
56599;SDS011;51832;48.152;11.530;2024-03-02T09:31:59;17.75;;;10.50;;
56599;SDS011;51832;48.152;11.530;2024-03-02T09:37:00;15.20;;;9.85;;
56599;SDS011;51832;48.152;11.530;2024-03-02T09:42:00;16.15;;;11.27;;
56599;SDS011;51832;48.152;11.530;2024-03-02T09:47:01;13.55;;;8.85;;
56599;SDS011;51832;48.152;11.530;2024-03-02T09:52:01;11.10;;;8.00;;
56599;SDS011;51832;48.152;11.530;2024-03-02T09:57:03;9.05;;;6.82;;
56599;SDS011;51832;48.152;11.530;2024-03-02T10:02:04;14.45;;;8.98;;
56599;SDS011;51832;48.152;11.530;2024-03-02T10:12:19;11.00;;;7.43;;
56599;SDS011;51832;48.152;11.530;2024-03-02T10:17:20;11.63;;;7.28;;
56599;SDS011;51832;48.152;11.530;2024-03-02T10:22:22;11.70;;;7.32;;
56599;SDS011;51832;48.152;11.530;2024-03-02T10:27:25;10.23;;;6.80;;
56599;SDS011;51832;48.152;11.530;2024-03-02T10:32:27;10.98;;;6.97;;
56599;SDS011;51832;48.152;11.530;2024-03-02T10:37:27;10.43;;;6.72;;
56599;SDS011;51832;48.152;11.530;2024-03-02T10:42:28;11.27;;;5.80;;
56599;SDS011;51832;48.152;11.530;2024-03-02T10:47:29;11.70;;;5.95;;
56599;SDS011;51832;48.152;11.530;2024-03-02T10:52:32;11.75;;;7.20;;
56599;SDS011;51832;48.152;11.530;2024-03-02T10:57:33;9.90;;;6.05;;
56599;SDS011;51832;48.152;11.530;2024-03-02T11:02:55;10.23;;;7.18;;
56599;SDS011;51832;48.152;11.530;2024-03-02T11:08:00;8.45;;;5.95;;
56599;SDS011;51832;48.152;11.530;2024-03-02T11:13:08;11.07;;;6.93;;
56599;SDS011;51832;48.152;11.530;2024-03-02T11:18:09;12.02;;;6.75;;
56599;SDS011;51832;48.152;11.530;2024-03-02T11:23:11;14.35;;;8.20;;
56599;SDS011;51832;48.152;11.530;2024-03-02T11:28:12;16.38;;;8.57;;
56599;SDS011;51832;48.152;11.530;2024-03-02T11:33:12;15.25;;;7.88;;
56599;SDS011;51832;48.152;11.530;2024-03-02T11:38:13;15.27;;;8.80;;
56599;SDS011;51832;48.152;11.530;2024-03-02T11:43:14;17.50;;;10.15;;
56599;SDS011;51832;48.152;11.530;2024-03-02T11:48:14;17.20;;;8.93;;
56599;SDS011;51832;48.152;11.530;2024-03-02T11:53:16;19.75;;;10.18;;
56599;SDS011;51832;48.152;11.530;2024-03-02T11:58:20;19.35;;;9.57;;
56599;SDS011;51832;48.152;11.530;2024-03-02T12:03:24;15.95;;;8.68;;
56599;SDS011;51832;48.152;11.530;2024-03-02T12:08:25;16.35;;;10.25;;
56599;SDS011;51832;48.152;11.530;2024-03-02T12:13:26;18.55;;;10.02;;
56599;SDS011;51832;48.152;11.530;2024-03-02T12:18:27;17.48;;;10.50;;
56599;SDS011;51832;48.152;11.530;2024-03-02T12:23:28;30.90;;;16.70;;
56599;SDS011;51832;48.152;11.530;2024-03-02T12:28:28;20.95;;;10.63;;
56599;SDS011;51832;48.152;11.530;2024-03-02T12:33:29;29.42;;;12.23;;
56599;SDS011;51832;48.152;11.530;2024-03-02T12:38:30;30.02;;;15.40;;
56599;SDS011;51832;48.152;11.530;2024-03-02T12:43:31;22.60;;;12.25;;
56599;SDS011;51832;48.152;11.530;2024-03-02T12:48:34;20.60;;;11.07;;
56599;SDS011;51832;48.152;11.530;2024-03-02T12:53:36;19.63;;;11.63;;
56599;SDS011;51832;48.152;11.530;2024-03-02T12:58:40;21.08;;;12.15;;
56599;SDS011;51832;48.152;11.530;2024-03-02T13:03:43;17.67;;;11.23;;
56599;SDS011;51832;48.152;11.530;2024-03-02T13:08:44;18.73;;;11.57;;
56599;SDS011;51832;48.152;11.530;2024-03-02T13:13:45;17.17;;;10.85;;
56599;SDS011;51832;48.152;11.530;2024-03-02T13:18:47;17.10;;;10.65;;
56599;SDS011;51832;48.152;11.530;2024-03-02T13:23:47;18.55;;;12.15;;
56599;SDS011;51832;48.152;11.530;2024-03-02T13:28:48;19.75;;;12.25;;
56599;SDS011;51832;48.152;11.530;2024-03-02T13:33:48;18.60;;;11.48;;
56599;SDS011;51832;48.152;11.530;2024-03-02T13:38:49;18.73;;;11.88;;
56599;SDS011;51832;48.152;11.530;2024-03-02T13:43:49;18.92;;;11.75;;
56599;SDS011;51832;48.152;11.530;2024-03-02T13:48:50;18.65;;;11.30;;
56599;SDS011;51832;48.152;11.530;2024-03-02T13:53:51;20.20;;;12.10;;
56599;SDS011;51832;48.152;11.530;2024-03-02T13:58:52;19.90;;;12.13;;
56599;SDS011;51832;48.152;11.530;2024-03-02T14:03:52;22.58;;;13.98;;
56599;SDS011;51832;48.152;11.530;2024-03-02T14:08:54;23.27;;;13.50;;
56599;SDS011;51832;48.152;11.530;2024-03-02T14:13:55;20.35;;;11.75;;
56599;SDS011;51832;48.152;11.530;2024-03-02T14:18:57;20.05;;;10.98;;
56599;SDS011;51832;48.152;11.530;2024-03-02T14:23:59;14.50;;;8.53;;
56599;SDS011;51832;48.152;11.530;2024-03-02T14:28:59;14.80;;;8.93;;
56599;SDS011;51832;48.152;11.530;2024-03-02T14:34:02;17.47;;;10.30;;
56599;SDS011;51832;48.152;11.530;2024-03-02T14:39:02;16.45;;;9.07;;
56599;SDS011;51832;48.152;11.530;2024-03-02T14:44:04;12.90;;;8.25;;
56599;SDS011;51832;48.152;11.530;2024-03-02T14:49:04;15.38;;;8.93;;
56599;SDS011;51832;48.152;11.530;2024-03-02T14:54:05;14.63;;;9.45;;
56599;SDS011;51832;48.152;11.530;2024-03-02T14:59:05;8.32;;;6.13;;
56599;SDS011;51832;48.152;11.530;2024-03-02T15:04:06;15.40;;;9.90;;
56599;SDS011;51832;48.152;11.530;2024-03-02T15:09:07;16.00;;;11.05;;
56599;SDS011;51832;48.152;11.530;2024-03-02T15:14:08;17.13;;;11.45;;
56599;SDS011;51832;48.152;11.530;2024-03-02T15:19:08;12.70;;;10.63;;
56599;SDS011;51832;48.152;11.530;2024-03-02T15:24:09;17.73;;;11.20;;
56599;SDS011;51832;48.152;11.530;2024-03-02T15:29:09;16.98;;;11.18;;
56599;SDS011;51832;48.152;11.530;2024-03-02T15:34:10;17.30;;;12.23;;
56599;SDS011;51832;48.152;11.530;2024-03-02T15:39:10;17.30;;;11.63;;
56599;SDS011;51832;48.152;11.530;2024-03-02T15:44:11;18.08;;;12.43;;
56599;SDS011;51832;48.152;11.530;2024-03-02T15:49:12;15.75;;;11.75;;
56599;SDS011;51832;48.152;11.530;2024-03-02T15:54:12;16.55;;;12.23;;
56599;SDS011;51832;48.152;11.530;2024-03-02T15:59:13;14.15;;;11.05;;
56599;SDS011;51832;48.152;11.530;2024-03-02T16:04:13;17.03;;;12.23;;
56599;SDS011;51832;48.152;11.530;2024-03-02T16:09:13;16.63;;;12.40;;
56599;SDS011;51832;48.152;11.530;2024-03-02T16:14:14;16.13;;;11.43;;
56599;SDS011;51832;48.152;11.530;2024-03-02T16:19:14;16.60;;;11.93;;
56599;SDS011;51832;48.152;11.530;2024-03-02T16:24:15;24.73;;;15.95;;
56599;SDS011;51832;48.152;11.530;2024-03-02T16:29:15;17.75;;;10.82;;
56599;SDS011;51832;48.152;11.530;2024-03-02T16:34:16;21.73;;;12.98;;
56599;SDS011;51832;48.152;11.530;2024-03-02T16:39:16;20.52;;;12.80;;
56599;SDS011;51832;48.152;11.530;2024-03-02T16:44:17;19.85;;;12.43;;
56599;SDS011;51832;48.152;11.530;2024-03-02T16:49:17;24.65;;;13.90;;
56599;SDS011;51832;48.152;11.530;2024-03-02T16:54:18;44.88;;;25.33;;
56599;SDS011;51832;48.152;11.530;2024-03-02T16:59:18;37.80;;;20.17;;
56599;SDS011;51832;48.152;11.530;2024-03-02T17:04:19;26.60;;;14.20;;
56599;SDS011;51832;48.152;11.530;2024-03-02T17:09:19;23.73;;;12.93;;
56599;SDS011;51832;48.152;11.530;2024-03-02T17:14:20;24.65;;;13.13;;
56599;SDS011;51832;48.152;11.530;2024-03-02T17:19:20;22.60;;;13.30;;
56599;SDS011;51832;48.152;11.530;2024-03-02T17:24:21;25.92;;;13.95;;
56599;SDS011;51832;48.152;11.530;2024-03-02T17:29:21;24.08;;;13.75;;
56599;SDS011;51832;48.152;11.530;2024-03-02T17:34:22;24.17;;;14.10;;
56599;SDS011;51832;48.152;11.530;2024-03-02T17:39:25;21.40;;;13.10;;
56599;SDS011;51832;48.152;11.530;2024-03-02T17:44:26;23.42;;;13.45;;
56599;SDS011;51832;48.152;11.530;2024-03-02T17:49:26;24.42;;;14.65;;
56599;SDS011;51832;48.152;11.530;2024-03-02T17:54:26;24.05;;;13.40;;
56599;SDS011;51832;48.152;11.530;2024-03-02T17:59:27;23.80;;;14.50;;
56599;SDS011;51832;48.152;11.530;2024-03-02T18:04:27;28.23;;;15.25;;
56599;SDS011;51832;48.152;11.530;2024-03-02T18:09:29;23.83;;;13.88;;
56599;SDS011;51832;48.152;11.530;2024-03-02T18:14:29;24.15;;;14.50;;
56599;SDS011;51832;48.152;11.530;2024-03-02T18:19:31;26.65;;;14.65;;
56599;SDS011;51832;48.152;11.530;2024-03-02T18:24:32;27.75;;;14.50;;
56599;SDS011;51832;48.152;11.530;2024-03-02T18:29:32;31.33;;;15.70;;
56599;SDS011;51832;48.152;11.530;2024-03-02T18:34:33;42.72;;;22.00;;
56599;SDS011;51832;48.152;11.530;2024-03-02T18:39:33;27.27;;;16.10;;
56599;SDS011;51832;48.152;11.530;2024-03-02T18:44:34;27.80;;;14.50;;
56599;SDS011;51832;48.152;11.530;2024-03-02T18:49:35;31.67;;;16.13;;
56599;SDS011;51832;48.152;11.530;2024-03-02T18:54:35;31.02;;;16.27;;
56599;SDS011;51832;48.152;11.530;2024-03-02T18:59:36;29.35;;;15.75;;
56599;SDS011;51832;48.152;11.530;2024-03-02T19:04:36;35.20;;;15.57;;
56599;SDS011;51832;48.152;11.530;2024-03-02T19:09:37;30.02;;;14.30;;
56599;SDS011;51832;48.152;11.530;2024-03-02T19:14:37;33.72;;;16.42;;
56599;SDS011;51832;48.152;11.530;2024-03-02T19:19:38;34.78;;;17.05;;
56599;SDS011;51832;48.152;11.530;2024-03-02T19:24:39;33.75;;;15.60;;
56599;SDS011;51832;48.152;11.530;2024-03-02T19:29:40;33.92;;;16.95;;
56599;SDS011;51832;48.152;11.530;2024-03-02T19:34:40;33.15;;;16.23;;
56599;SDS011;51832;48.152;11.530;2024-03-02T19:39:40;31.33;;;16.10;;
56599;SDS011;51832;48.152;11.530;2024-03-02T19:44:42;30.40;;;15.88;;
56599;SDS011;51832;48.152;11.530;2024-03-02T19:49:43;30.70;;;16.27;;
56599;SDS011;51832;48.152;11.530;2024-03-02T19:54:43;33.35;;;17.90;;
56599;SDS011;51832;48.152;11.530;2024-03-02T19:59:44;32.63;;;16.73;;
56599;SDS011;51832;48.152;11.530;2024-03-02T20:04:45;33.10;;;17.10;;
56599;SDS011;51832;48.152;11.530;2024-03-02T20:09:47;32.88;;;16.50;;
56599;SDS011;51832;48.152;11.530;2024-03-02T20:14:48;33.05;;;17.15;;
56599;SDS011;51832;48.152;11.530;2024-03-02T20:19:48;33.30;;;16.65;;
56599;SDS011;51832;48.152;11.530;2024-03-02T20:24:49;34.47;;;19.10;;
56599;SDS011;51832;48.152;11.530;2024-03-02T20:29:52;34.65;;;17.85;;
56599;SDS011;51832;48.152;11.530;2024-03-02T20:34:52;32.22;;;17.73;;
56599;SDS011;51832;48.152;11.530;2024-03-02T20:39:53;35.90;;;18.35;;
56599;SDS011;51832;48.152;11.530;2024-03-02T20:44:54;37.72;;;19.27;;
56599;SDS011;51832;48.152;11.530;2024-03-02T20:49:55;36.35;;;18.30;;
56599;SDS011;51832;48.152;11.530;2024-03-02T20:54:55;35.13;;;17.95;;
56599;SDS011;51832;48.152;11.530;2024-03-02T20:59:56;40.33;;;18.77;;
56599;SDS011;51832;48.152;11.530;2024-03-02T21:04:56;37.33;;;17.80;;
56599;SDS011;51832;48.152;11.530;2024-03-02T21:09:56;38.08;;;18.83;;
56599;SDS011;51832;48.152;11.530;2024-03-02T21:14:57;38.45;;;19.38;;
56599;SDS011;51832;48.152;11.530;2024-03-02T21:19:57;39.95;;;19.35;;
56599;SDS011;51832;48.152;11.530;2024-03-02T21:24:58;35.28;;;18.40;;
56599;SDS011;51832;48.152;11.530;2024-03-02T21:30:01;37.60;;;17.55;;
56599;SDS011;51832;48.152;11.530;2024-03-02T21:35:02;36.22;;;18.30;;
56599;SDS011;51832;48.152;11.530;2024-03-02T21:40:05;35.15;;;17.40;;
56599;SDS011;51832;48.152;11.530;2024-03-02T21:45:06;40.42;;;19.02;;
56599;SDS011;51832;48.152;11.530;2024-03-02T21:50:07;41.70;;;18.40;;
56599;SDS011;51832;48.152;11.530;2024-03-02T21:55:08;36.10;;;18.30;;
56599;SDS011;51832;48.152;11.530;2024-03-02T22:00:09;36.90;;;18.17;;
56599;SDS011;51832;48.152;11.530;2024-03-02T22:05:10;36.47;;;18.30;;
56599;SDS011;51832;48.152;11.530;2024-03-02T22:10:10;37.15;;;18.00;;
56599;SDS011;51832;48.152;11.530;2024-03-02T22:15:11;40.47;;;18.25;;
56599;SDS011;51832;48.152;11.530;2024-03-02T22:20:11;41.92;;;19.75;;
56599;SDS011;51832;48.152;11.530;2024-03-02T22:25:12;36.95;;;17.35;;
56599;SDS011;51832;48.152;11.530;2024-03-02T22:30:12;37.63;;;18.27;;
56599;SDS011;51832;48.152;11.530;2024-03-02T22:35:13;40.63;;;19.42;;
56599;SDS011;51832;48.152;11.530;2024-03-02T22:40:13;36.22;;;17.83;;
56599;SDS011;51832;48.152;11.530;2024-03-02T22:45:14;37.40;;;18.85;;
56599;SDS011;51832;48.152;11.530;2024-03-02T22:50:14;37.92;;;17.42;;
56599;SDS011;51832;48.152;11.530;2024-03-02T22:55:15;38.50;;;17.33;;
56599;SDS011;51832;48.152;11.530;2024-03-02T23:00:15;40.75;;;19.13;;
56599;SDS011;51832;48.152;11.530;2024-03-02T23:05:34;40.50;;;18.52;;
56599;SDS011;51832;48.152;11.530;2024-03-02T23:10:34;37.97;;;19.33;;
56599;SDS011;51832;48.152;11.530;2024-03-02T23:15:35;40.28;;;18.73;;
56599;SDS011;51832;48.152;11.530;2024-03-02T23:20:35;38.35;;;18.90;;
56599;SDS011;51832;48.152;11.530;2024-03-02T23:25:36;38.80;;;18.70;;
56599;SDS011;51832;48.152;11.530;2024-03-02T23:30:36;38.85;;;18.00;;
56599;SDS011;51832;48.152;11.530;2024-03-02T23:35:36;42.08;;;20.08;;
56599;SDS011;51832;48.152;11.530;2024-03-02T23:40:37;43.33;;;19.38;;
56599;SDS011;51832;48.152;11.530;2024-03-02T23:45:57;37.88;;;17.48;;
56599;SDS011;51832;48.152;11.530;2024-03-02T23:50:58;39.35;;;18.48;;
56599;SDS011;51832;48.152;11.530;2024-03-02T23:56:06;40.97;;;17.27;;
